Time,TemperatureF,DewpointF,PressureIn,WindDirection,WindDirectionDegrees,WindSpeedMPH,WindSpeedGustMPH,Humidity,HourlyPrecipIn,Conditions,Clouds,dailyrainin,SoftwareType,DateUTC
2013-08-16 00:00:00,56.7,54.1,30.06,West,270,0.0,0.0,91,0.00,,---,0.00,VWS V14.01,2013-08-16 04:00:00,
2013-08-16 00:01:00,56.6,54.0,30.06,West,270,0.0,0.0,91,0.00,,---,0.00,VWS V14.01,2013-08-16 04:01:00,
2013-08-16 00:03:00,56.6,54.0,30.06,West,270,0.0,0.0,91,0.00,,---,0.00,VWS V14.01,2013-08-16 04:03:00,
2013-08-16 00:05:00,56.6,54.0,30.06,West,270,0.0,0.0,91,0.00,,---,0.00,VWS V14.01,2013-08-16 04:05:00,
2013-08-16 00:08:00,56.5,53.9,30.06,West,270,0.0,0.0,91,0.00,,---,0.00,VWS V14.01,2013-08-16 04:08:00,
2013-08-16 00:10:00,56.5,53.9,30.06,West,270,0.0,0.0,91,0.00,,---,0.00,VWS V14.01,2013-08-16 04:10:00,
2013-08-16 00:13:00,56.4,53.8,30.06,West,270,0.0,0.0,91,0.00,,---,0.00,VWS V14.01,2013-08-16 04:13:00,
2013-08-16 00:15:00,56.4,53.8,30.06,West,270,0.0,0.0,91,0.00,,---,0.00,VWS V14.01,2013-08-16 04:15:00,
2013-08-16 00:18:00,56.3,53.7,30.06,West,270,0.0,0.0,91,0.00,,---,0.00,VWS V14.01,2013-08-16 04:18:00,
2013-08-16 00:20:00,56.3,53.7,30.06,West,270,0.0,0.0,91,0.00,,---,0.00,VWS V14.01,2013-08-16 04:20:00,
2013-08-16 00:23:00,56.2,53.6,30.06,West,270,0.0,0.0,91,0.00,,---,0.00,VWS V14.01,2013-08-16 04:23:00,
2013-08-16 00:25:00,56.1,53.8,30.07,West,270,0.0,0.0,92,0.00,,---,0.00,VWS V14.01,2013-08-16 04:25:00,
2013-08-16 00:28:00,56.1,53.8,30.07,West,270,0.0,0.0,92,0.00,,---,0.00,VWS V14.01,2013-08-16 04:28:00,
2013-08-16 00:30:00,56.0,53.7,30.07,West,270,0.0,0.0,92,0.00,,---,0.00,VWS V14.01,2013-08-16 04:30:00,
2013-08-16 00:33:00,56.0,53.7,30.07,West,270,0.0,0.0,92,0.00,,---,0.00,VWS V14.01,2013-08-16 04:33:00,
2013-08-16 00:35:00,56.0,53.7,30.07,West,270,0.0,0.0,92,0.00,,---,0.00,VWS V14.01,2013-08-16 04:35:00,
2013-08-16 00:38:00,56.0,53.7,30.07,West,270,0.0,0.0,92,0.00,,---,0.00,VWS V14.01,2013-08-16 04:38:00,
2013-08-16 00:40:00,55.9,53.6,30.07,West,270,0.0,0.0,92,0.00,,---,0.00,VWS V14.01,2013-08-16 04:40:00,
2013-08-16 00:43:00,55.9,53.6,30.07,West,270,0.0,0.0,92,0.00,,---,0.00,VWS V14.01,2013-08-16 04:43:00,
2013-08-16 00:45:00,55.9,53.6,30.07,West,270,0.0,0.0,92,0.00,,---,0.00,VWS V14.01,2013-08-16 04:45:00,
2013-08-16 00:48:00,55.8,53.5,30.07,West,270,0.0,0.0,92,0.00,,---,0.00,VWS V14.01,2013-08-16 04:48:00,
2013-08-16 00:50:00,55.8,53.5,30.07,West,270,0.0,0.0,92,0.00,,---,0.00,VWS V14.01,2013-08-16 04:50:00,
2013-08-16 00:53:00,55.8,53.8,30.07,West,270,0.0,0.0,93,0.00,,---,0.00,VWS V14.01,2013-08-16 04:53:00,
2013-08-16 00:55:00,55.8,53.8,30.07,West,270,0.0,0.0,93,0.00,,---,0.00,VWS V14.01,2013-08-16 04:55:00,
2013-08-16 00:58:00,55.7,53.7,30.07,West,270,0.0,0.0,93,0.00,,---,0.00,VWS V14.01,2013-08-16 04:58:00,
2013-08-16 01:00:00,55.7,53.7,30.07,West,270,0.0,0.0,93,0.00,,---,0.00,VWS V14.01,2013-08-16 05:00:00,
2013-08-16 01:03:00,55.6,53.6,30.07,West,270,0.0,0.0,93,0.00,,---,0.00,VWS V14.01,2013-08-16 05:03:00,
2013-08-16 01:05:00,55.6,53.6,30.07,West,270,0.0,0.0,93,0.00,,---,0.00,VWS V14.01,2013-08-16 05:05:00,
2013-08-16 01:08:00,55.5,53.5,30.06,West,270,0.0,0.0,93,0.00,,---,0.00,VWS V14.01,2013-08-16 05:08:00,
2013-08-16 01:10:00,55.5,53.5,30.06,West,270,0.0,0.0,93,0.00,,---,0.00,VWS V14.01,2013-08-16 05:10:00,
2013-08-16 01:14:00,55.5,53.5,30.06,West,270,0.0,0.0,93,0.00,,---,0.00,VWS V14.01,2013-08-16 05:14:00,
2013-08-16 01:15:00,55.5,53.5,30.06,West,270,0.0,0.0,93,0.00,,---,0.00,VWS V14.01,2013-08-16 05:15:00,
2013-08-16 01:19:00,55.4,53.4,30.06,West,270,0.0,0.0,93,0.00,,---,0.00,VWS V14.01,2013-08-16 05:19:00,
2013-08-16 01:20:00,55.4,53.4,30.06,West,270,0.0,0.0,93,0.00,,---,0.00,VWS V14.01,2013-08-16 05:20:00,
2013-08-16 01:24:00,55.4,53.4,30.06,West,270,0.0,0.0,93,0.00,,---,0.00,VWS V14.01,2013-08-16 05:24:00,
2013-08-16 01:25:00,55.4,53.4,30.06,West,270,0.0,0.0,93,0.00,,---,0.00,VWS V14.01,2013-08-16 05:25:00,
2013-08-16 01:29:00,55.3,53.3,30.06,West,270,0.0,0.0,93,0.00,,---,0.00,VWS V14.01,2013-08-16 05:29:00,
2013-08-16 01:30:00,55.3,53.3,30.06,West,270,0.0,0.0,93,0.00,,---,0.00,VWS V14.01,2013-08-16 05:30:00,
2013-08-16 01:34:00,55.3,53.3,30.06,West,270,0.0,0.0,93,0.00,,---,0.00,VWS V14.01,2013-08-16 05:34:00,
2013-08-16 01:35:00,55.3,53.3,30.06,West,270,0.0,0.0,93,0.00,,---,0.00,VWS V14.01,2013-08-16 05:35:00,
2013-08-16 01:39:00,55.2,53.2,30.06,West,270,0.0,0.0,93,0.00,,---,0.00,VWS V14.01,2013-08-16 05:39:00,
2013-08-16 01:40:00,55.2,53.2,30.06,West,270,0.0,0.0,93,0.00,,---,0.00,VWS V14.01,2013-08-16 05:40:00,
2013-08-16 01:45:00,55.1,53.1,30.06,West,270,0.0,0.0,93,0.00,,---,0.00,VWS V14.01,2013-08-16 05:45:00,
2013-08-16 01:50:00,55.0,53.0,30.06,West,270,0.0,0.0,93,0.00,,---,0.00,VWS V14.01,2013-08-16 05:50:00,
2013-08-16 01:55:00,54.9,52.9,30.06,West,270,0.0,0.0,93,0.00,,---,0.00,VWS V14.01,2013-08-16 05:55:00,
2013-08-16 02:00:00,54.8,52.8,30.06,West,270,0.0,0.0,93,0.00,,---,0.00,VWS V14.01,2013-08-16 06:00:00,
2013-08-16 02:05:00,54.8,52.8,30.06,West,270,0.0,0.0,93,0.00,,---,0.00,VWS V14.01,2013-08-16 06:05:00,
2013-08-16 02:10:00,54.6,52.6,30.06,West,270,0.0,0.0,93,0.00,,---,0.00,VWS V14.01,2013-08-16 06:10:00,
2013-08-16 02:15:00,54.6,52.6,30.06,West,270,0.0,0.0,93,0.00,,---,0.00,VWS V14.01,2013-08-16 06:15:00,
2013-08-16 02:20:00,54.5,52.5,30.06,West,270,0.0,0.0,93,0.00,,---,0.00,VWS V14.01,2013-08-16 06:20:00,
2013-08-16 02:25:00,54.4,52.7,30.06,West,270,0.0,0.0,94,0.00,,---,0.00,VWS V14.01,2013-08-16 06:25:00,
2013-08-16 02:30:00,54.4,52.7,30.07,West,270,0.0,0.0,94,0.00,,---,0.00,VWS V14.01,2013-08-16 06:30:00,
2013-08-16 02:35:00,54.3,52.6,30.07,West,270,0.0,0.0,94,0.00,,---,0.00,VWS V14.01,2013-08-16 06:35:00,
2013-08-16 02:40:00,54.2,52.5,30.06,West,270,0.0,0.0,94,0.00,,---,0.00,VWS V14.01,2013-08-16 06:40:00,
2013-08-16 02:45:00,54.2,52.5,30.06,West,270,0.0,0.0,94,0.00,,---,0.00,VWS V14.01,2013-08-16 06:45:00,
2013-08-16 02:50:00,54.1,52.4,30.06,West,270,0.0,0.0,94,0.00,,---,0.00,VWS V14.01,2013-08-16 06:50:00,
2013-08-16 02:55:00,53.9,52.2,30.06,West,270,0.0,0.0,94,0.00,,---,0.00,VWS V14.01,2013-08-16 06:55:00,
2013-08-16 03:00:00,53.9,52.2,30.07,West,270,0.0,0.0,94,0.00,,---,0.00,VWS V14.01,2013-08-16 07:00:00,
2013-08-16 03:05:00,53.8,52.1,30.07,West,270,0.0,0.0,94,0.00,,---,0.00,VWS V14.01,2013-08-16 07:05:00,
2013-08-16 03:10:00,53.7,52.0,30.07,West,270,0.0,0.0,94,0.00,,---,0.00,VWS V14.01,2013-08-16 07:10:00,
2013-08-16 03:15:00,53.7,52.0,30.06,West,270,0.0,0.0,94,0.00,,---,0.00,VWS V14.01,2013-08-16 07:15:00,
2013-08-16 03:20:00,53.6,51.9,30.06,West,270,0.0,0.0,94,0.00,,---,0.00,VWS V14.01,2013-08-16 07:20:00,
2013-08-16 03:25:00,53.6,51.9,30.06,West,270,0.0,0.0,94,0.00,,---,0.00,VWS V14.01,2013-08-16 07:25:00,
2013-08-16 03:30:00,53.6,51.9,30.06,West,270,0.0,0.0,94,0.00,,---,0.00,VWS V14.01,2013-08-16 07:30:00,
2013-08-16 03:35:00,53.6,51.9,30.06,West,270,0.0,0.0,94,0.00,,---,0.00,VWS V14.01,2013-08-16 07:35:00,
2013-08-16 03:40:00,53.6,51.9,30.06,West,270,0.0,0.0,94,0.00,,---,0.00,VWS V14.01,2013-08-16 07:40:00,
2013-08-16 03:45:00,53.6,51.9,30.06,West,270,0.0,0.0,94,0.00,,---,0.00,VWS V14.01,2013-08-16 07:45:00,
2013-08-16 03:50:00,53.3,51.6,30.06,West,270,0.0,0.0,94,0.00,,---,0.00,VWS V14.01,2013-08-16 07:50:00,
2013-08-16 03:55:00,53.2,51.5,30.06,West,270,0.0,0.0,94,0.00,,---,0.00,VWS V14.01,2013-08-16 07:55:00,
2013-08-16 04:00:00,53.1,51.4,30.07,West,270,0.0,0.0,94,0.00,,---,0.00,VWS V14.01,2013-08-16 08:00:00,
2013-08-16 04:05:00,53.0,51.3,30.07,West,270,0.0,0.0,94,0.00,,---,0.00,VWS V14.01,2013-08-16 08:05:00,
2013-08-16 04:10:00,52.9,51.2,30.07,West,270,0.0,0.0,94,0.00,,---,0.00,VWS V14.01,2013-08-16 08:10:00,
2013-08-16 04:15:00,52.8,51.1,30.07,West,270,0.0,0.0,94,0.00,,---,0.00,VWS V14.01,2013-08-16 08:15:00,
2013-08-16 04:20:00,52.7,51.0,30.07,West,270,0.0,0.0,94,0.00,,---,0.00,VWS V14.01,2013-08-16 08:20:00,
2013-08-16 04:25:00,52.6,50.9,30.07,West,270,0.0,0.0,94,0.00,,---,0.00,VWS V14.01,2013-08-16 08:25:00,
2013-08-16 04:30:00,52.5,50.8,30.07,West,270,0.0,0.0,94,0.00,,---,0.00,VWS V14.01,2013-08-16 08:30:00,
2013-08-16 04:35:00,52.4,50.7,30.07,West,270,0.0,0.0,94,0.00,,---,0.00,VWS V14.01,2013-08-16 08:35:00,
2013-08-16 04:40:00,52.3,50.9,30.07,West,270,0.0,0.0,95,0.00,,---,0.00,VWS V14.01,2013-08-16 08:40:00,
2013-08-16 04:45:00,52.2,50.5,30.07,West,270,0.0,0.0,94,0.00,,---,0.00,VWS V14.01,2013-08-16 08:45:00,
2013-08-16 04:50:00,52.1,50.4,30.07,West,270,0.0,0.0,94,0.00,,---,0.00,VWS V14.01,2013-08-16 08:50:00,
2013-08-16 04:55:00,52.0,50.6,30.07,West,270,0.0,0.0,95,0.00,,---,0.00,VWS V14.01,2013-08-16 08:55:00,
2013-08-16 05:00:00,51.9,50.5,30.07,West,270,0.0,0.0,95,0.00,,---,0.00,VWS V14.01,2013-08-16 09:00:00,
2013-08-16 05:05:00,51.9,50.5,30.07,West,270,0.0,0.0,95,0.00,,---,0.00,VWS V14.01,2013-08-16 09:05:00,
2013-08-16 05:10:00,51.8,50.4,30.07,West,270,0.0,0.0,95,0.00,,---,0.00,VWS V14.01,2013-08-16 09:10:00,
2013-08-16 05:15:00,51.7,50.3,30.07,West,270,0.0,0.0,95,0.00,,---,0.00,VWS V14.01,2013-08-16 09:15:00,
2013-08-16 05:20:00,51.7,50.3,30.07,West,270,0.0,0.0,95,0.00,,---,0.00,VWS V14.01,2013-08-16 09:20:00,
2013-08-16 05:25:00,51.7,50.3,30.07,West,270,0.0,0.0,95,0.00,,---,0.00,VWS V14.01,2013-08-16 09:25:00,
2013-08-16 05:30:00,51.6,50.2,30.07,West,270,0.0,0.0,95,0.00,,---,0.00,VWS V14.01,2013-08-16 09:30:00,
2013-08-16 05:35:00,51.5,50.1,30.07,West,270,0.0,0.0,95,0.00,,---,0.00,VWS V14.01,2013-08-16 09:35:00,
2013-08-16 05:40:00,51.5,50.1,30.07,West,270,0.0,0.0,95,0.00,,---,0.00,VWS V14.01,2013-08-16 09:40:00,
2013-08-16 05:45:00,51.5,50.1,30.07,West,270,0.0,0.0,95,0.00,,---,0.00,VWS V14.01,2013-08-16 09:45:00,
2013-08-16 05:50:00,51.5,50.1,30.08,West,270,0.0,0.0,95,0.00,,---,0.00,VWS V14.01,2013-08-16 09:50:00,
2013-08-16 05:55:00,51.5,50.1,30.08,West,270,0.0,0.0,95,0.00,,---,0.00,VWS V14.01,2013-08-16 09:55:00,
2013-08-16 06:00:00,51.6,50.2,30.08,West,270,0.0,0.0,95,0.00,,---,0.00,VWS V14.01,2013-08-16 10:00:00,
2013-08-16 06:05:00,51.7,50.3,30.08,West,270,0.0,0.0,95,0.00,,---,0.00,VWS V14.01,2013-08-16 10:05:00,
2013-08-16 06:10:00,51.8,50.4,30.08,West,270,0.0,0.0,95,0.00,,---,0.00,VWS V14.01,2013-08-16 10:10:00,
2013-08-16 06:15:00,51.9,50.5,30.08,West,270,0.0,0.0,95,0.00,,---,0.00,VWS V14.01,2013-08-16 10:15:00,
2013-08-16 06:20:00,52.2,51.1,30.08,West,270,0.0,0.0,96,0.00,,---,0.00,VWS V14.01,2013-08-16 10:20:00,
2013-08-16 06:25:00,52.4,51.3,30.08,West,270,0.0,0.0,96,0.00,,---,0.00,VWS V14.01,2013-08-16 10:25:00,
2013-08-16 06:30:00,52.5,51.4,30.08,West,270,0.0,0.0,96,0.00,,---,0.00,VWS V14.01,2013-08-16 10:30:00,
2013-08-16 06:35:00,52.5,51.4,30.08,West,270,0.0,0.0,96,0.00,,---,0.00,VWS V14.01,2013-08-16 10:35:00,
2013-08-16 06:40:00,52.6,51.5,30.08,West,270,0.0,0.0,96,0.00,,---,0.00,VWS V14.01,2013-08-16 10:40:00,
2013-08-16 06:45:00,52.8,51.7,30.09,West,270,0.0,0.0,96,0.00,,---,0.00,VWS V14.01,2013-08-16 10:45:00,
2013-08-16 06:50:00,52.9,51.8,30.09,West,270,0.0,0.0,96,0.00,,---,0.00,VWS V14.01,2013-08-16 10:50:00,
2013-08-16 06:55:00,53.0,51.9,30.09,West,270,0.0,0.0,96,0.00,,---,0.00,VWS V14.01,2013-08-16 10:55:00,
2013-08-16 07:00:00,53.2,52.1,30.09,West,270,0.0,0.0,96,0.00,,---,0.00,VWS V14.01,2013-08-16 11:00:00,
2013-08-16 07:05:00,53.3,52.2,30.09,West,270,0.0,0.0,96,0.00,,---,0.00,VWS V14.01,2013-08-16 11:05:00,
2013-08-16 07:10:00,53.4,52.3,30.09,West,270,0.0,0.0,96,0.00,,---,0.00,VWS V14.01,2013-08-16 11:10:00,
2013-08-16 07:15:00,53.6,52.5,30.09,West,270,0.0,1.0,96,0.00,,---,0.00,VWS V14.01,2013-08-16 11:15:00,
2013-08-16 07:20:00,53.7,52.6,30.09,West,270,0.0,0.0,96,0.00,,---,0.00,VWS V14.01,2013-08-16 11:20:00,
2013-08-16 07:25:00,53.8,52.7,30.09,West,270,0.0,0.0,96,0.00,,---,0.00,VWS V14.01,2013-08-16 11:25:00,
2013-08-16 07:30:00,53.9,52.8,30.09,West,270,0.0,0.0,96,0.00,,---,0.00,VWS V14.01,2013-08-16 11:30:00,
2013-08-16 07:35:00,54.3,53.2,30.09,West,270,0.0,0.0,96,0.00,,---,0.00,VWS V14.01,2013-08-16 11:35:00,
2013-08-16 07:40:00,54.6,53.8,30.09,West,270,1.0,4.0,97,0.00,,---,0.00,VWS V14.01,2013-08-16 11:40:00,
2013-08-16 07:45:00,55.1,54.3,30.09,West,270,0.0,3.0,97,0.00,,---,0.00,VWS V14.01,2013-08-16 11:45:00,
2013-08-16 07:50:00,55.7,54.9,30.09,West,270,0.0,3.0,97,0.00,,---,0.00,VWS V14.01,2013-08-16 11:50:00,
2013-08-16 07:55:00,56.0,55.2,30.09,WSW,258,0.0,5.0,97,0.00,,---,0.00,VWS V14.01,2013-08-16 11:55:00,
2013-08-16 08:00:00,56.4,55.6,30.10,WSW,258,0.0,2.0,97,0.00,,---,0.00,VWS V14.01,2013-08-16 12:00:00,
2013-08-16 08:05:00,57.0,56.2,30.10,WSW,258,1.0,1.0,97,0.00,,---,0.00,VWS V14.01,2013-08-16 12:05:00,
2013-08-16 08:10:00,57.3,56.5,30.10,West,261,0.0,1.0,97,0.00,,---,0.00,VWS V14.01,2013-08-16 12:10:00,
2013-08-16 08:15:00,57.7,56.9,30.10,West,261,0.0,0.0,97,0.00,,---,0.00,VWS V14.01,2013-08-16 12:15:00,
2013-08-16 08:20:00,58.0,57.2,30.09,West,261,0.0,0.0,97,0.00,,---,0.00,VWS V14.01,2013-08-16 12:20:00,
2013-08-16 08:25:00,58.2,57.4,30.10,West,261,0.0,3.0,97,0.00,,---,0.00,VWS V14.01,2013-08-16 12:25:00,
2013-08-16 08:30:00,58.5,57.4,30.10,West,271,3.0,6.0,96,0.00,,---,0.00,VWS V14.01,2013-08-16 12:30:00,
2013-08-16 08:31:00,58.5,57.4,30.10,West,271,2.0,3.0,96,0.00,,---,0.00,VWS V14.01,2013-08-16 12:31:00,
2013-08-16 08:35:00,58.7,57.6,30.09,West,281,0.0,6.0,96,0.00,,---,0.00,VWS V14.01,2013-08-16 12:35:00,
2013-08-16 08:36:00,58.8,57.7,30.09,West,281,0.0,0.0,96,0.00,,---,0.00,VWS V14.01,2013-08-16 12:36:00,
2013-08-16 08:40:00,59.0,57.3,30.09,SW,234,1.0,4.0,94,0.00,,---,0.00,VWS V14.01,2013-08-16 12:40:00,
2013-08-16 08:41:00,59.0,57.3,30.09,SW,234,0.0,1.0,94,0.00,,---,0.00,VWS V14.01,2013-08-16 12:41:00,
2013-08-16 08:45:00,59.7,57.4,30.09,WNW,296,1.0,6.0,92,0.00,,---,0.00,VWS V14.01,2013-08-16 12:45:00,
2013-08-16 08:46:00,59.8,57.5,30.09,WNW,296,2.0,3.0,92,0.00,,---,0.00,VWS V14.01,2013-08-16 12:46:00,
2013-08-16 08:50:00,60.3,57.7,30.09,West,268,0.0,3.0,91,0.00,,---,0.00,VWS V14.01,2013-08-16 12:50:00,
2013-08-16 08:51:00,60.4,57.8,30.09,SSW,204,3.0,3.0,91,0.00,,---,0.00,VWS V14.01,2013-08-16 12:51:00,
2013-08-16 08:55:00,60.9,57.6,30.09,SSW,201,1.0,9.0,89,0.00,,---,0.00,VWS V14.01,2013-08-16 12:55:00,
2013-08-16 08:56:00,61.0,57.7,30.09,West,264,3.0,5.0,89,0.00,,---,0.00,VWS V14.01,2013-08-16 12:56:00,
2013-08-16 09:00:00,61.6,58.0,30.09,WSW,255,0.0,5.0,88,0.00,,---,0.00,VWS V14.01,2013-08-16 13:00:00,
2013-08-16 09:01:00,61.6,58.0,30.09,WSW,255,4.0,4.0,88,0.00,,---,0.00,VWS V14.01,2013-08-16 13:01:00,
2013-08-16 09:05:00,62.2,58.0,30.09,WNW,286,3.0,6.0,86,0.00,,---,0.00,VWS V14.01,2013-08-16 13:05:00,
2013-08-16 09:06:00,62.3,57.7,30.09,SW,217,4.0,4.0,85,0.00,,---,0.00,VWS V14.01,2013-08-16 13:06:00,
2013-08-16 09:10:00,62.9,57.7,30.09,SSW,204,0.0,4.0,83,0.00,,---,0.00,VWS V14.01,2013-08-16 13:10:00,
2013-08-16 09:11:00,63.0,57.8,30.09,West,271,0.0,5.0,83,0.00,,---,0.00,VWS V14.01,2013-08-16 13:11:00,
2013-08-16 09:15:00,63.6,58.3,30.08,WNW,301,0.0,5.0,83,0.00,,---,0.00,VWS V14.01,2013-08-16 13:15:00,
2013-08-16 09:16:00,63.7,58.5,30.09,West,271,5.0,5.0,83,0.00,,---,0.00,VWS V14.01,2013-08-16 13:16:00,
2013-08-16 09:20:00,64.2,58.3,30.09,WSW,246,5.0,8.0,81,0.00,,---,0.00,VWS V14.01,2013-08-16 13:20:00,
2013-08-16 09:21:00,64.2,58.3,30.09,NW,316,9.0,9.0,81,0.00,,---,0.00,VWS V14.01,2013-08-16 13:21:00,
2013-08-16 09:25:00,64.7,57.7,30.09,WSW,240,4.0,9.0,78,0.00,,---,0.00,VWS V14.01,2013-08-16 13:25:00,
2013-08-16 09:26:00,64.8,57.8,30.09,West,274,4.0,7.0,78,0.00,,---,0.00,VWS V14.01,2013-08-16 13:26:00,
2013-08-16 09:30:00,65.2,58.5,30.09,NW,316,2.0,7.0,79,0.00,,---,0.00,VWS V14.01,2013-08-16 13:30:00,
2013-08-16 09:31:00,65.2,58.5,30.09,WNW,290,4.0,4.0,79,0.00,,---,0.00,VWS V14.01,2013-08-16 13:31:00,
2013-08-16 09:35:00,65.5,58.1,30.09,WSW,252,3.0,9.0,77,0.00,,---,0.00,VWS V14.01,2013-08-16 13:35:00,
2013-08-16 09:36:00,65.6,58.2,30.09,SW,217,2.0,4.0,77,0.00,,---,0.00,VWS V14.01,2013-08-16 13:36:00,
2013-08-16 09:40:00,65.9,57.8,30.09,WNW,285,4.0,6.0,75,0.00,,---,0.00,VWS V14.01,2013-08-16 13:40:00,
2013-08-16 09:41:00,66.0,57.9,30.09,SW,232,2.0,4.0,75,0.00,,---,0.00,VWS V14.01,2013-08-16 13:41:00,
2013-08-16 09:45:00,66.4,58.6,30.09,WSW,249,1.0,5.0,76,0.00,,---,0.00,VWS V14.01,2013-08-16 13:45:00,
2013-08-16 09:46:00,66.5,58.7,30.09,WSW,249,0.0,1.0,76,0.00,,---,0.00,VWS V14.01,2013-08-16 13:46:00,
2013-08-16 09:50:00,66.7,58.2,30.09,West,263,4.0,8.0,74,0.00,,---,0.00,VWS V14.01,2013-08-16 13:50:00,
2013-08-16 09:51:00,66.7,58.2,30.09,WSW,246,1.0,6.0,74,0.00,,---,0.00,VWS V14.01,2013-08-16 13:51:00,
2013-08-16 09:55:00,67.0,58.5,30.09,SW,229,6.0,11.0,74,0.00,,---,0.00,VWS V14.01,2013-08-16 13:55:00,
2013-08-16 09:56:00,67.1,58.9,30.09,SW,225,0.0,6.0,75,0.00,,---,0.00,VWS V14.01,2013-08-16 13:56:00,
2013-08-16 10:00:00,67.3,59.5,30.09,West,279,0.0,7.0,76,0.00,,---,0.00,VWS V14.01,2013-08-16 14:00:00,
2013-08-16 10:01:00,67.3,59.5,30.10,West,265,0.0,3.0,76,0.00,,---,0.00,VWS V14.01,2013-08-16 14:01:00,
2013-08-16 10:05:00,67.4,58.8,30.09,West,265,1.0,3.0,74,0.00,,---,0.00,VWS V14.01,2013-08-16 14:05:00,
2013-08-16 10:06:00,67.5,58.9,30.09,West,262,3.0,3.0,74,0.00,,---,0.00,VWS V14.01,2013-08-16 14:06:00,
2013-08-16 10:10:00,67.7,58.7,30.09,West,265,3.0,10.0,73,0.00,,---,0.00,VWS V14.01,2013-08-16 14:10:00,
2013-08-16 10:11:00,67.8,58.8,30.09,West,267,7.0,10.0,73,0.00,,---,0.00,VWS V14.01,2013-08-16 14:11:00,
2013-08-16 10:15:00,68.0,58.7,30.09,WNW,284,4.0,10.0,72,0.00,,---,0.00,VWS V14.01,2013-08-16 14:15:00,
2013-08-16 10:16:00,68.1,58.0,30.09,West,281,2.0,8.0,70,0.00,,---,0.00,VWS V14.01,2013-08-16 14:16:00,
2013-08-16 10:20:00,68.3,58.5,30.09,NW,312,0.0,8.0,71,0.00,,---,0.00,VWS V14.01,2013-08-16 14:20:00,
2013-08-16 10:21:00,68.3,58.9,30.09,SW,236,1.0,7.0,72,0.00,,---,0.00,VWS V14.01,2013-08-16 14:21:00,
2013-08-16 10:25:00,68.5,59.1,30.09,WNW,291,2.0,7.0,72,0.00,,---,0.00,VWS V14.01,2013-08-16 14:25:00,
2013-08-16 10:26:00,68.5,59.5,30.09,WNW,291,0.0,2.0,73,0.00,,---,0.00,VWS V14.01,2013-08-16 14:26:00,
2013-08-16 10:30:00,68.7,58.9,30.09,West,259,8.0,10.0,71,0.00,,---,0.00,VWS V14.01,2013-08-16 14:30:00,
2013-08-16 10:31:00,68.8,58.2,30.09,NE,48,2.0,8.0,69,0.00,,---,0.00,VWS V14.01,2013-08-16 14:31:00,
2013-08-16 10:35:00,69.1,58.5,30.09,West,265,0.0,8.0,69,0.00,,---,0.00,VWS V14.01,2013-08-16 14:35:00,
2013-08-16 10:36:00,69.2,58.6,30.09,WNW,294,5.0,10.0,69,0.00,,---,0.00,VWS V14.01,2013-08-16 14:36:00,
2013-08-16 10:40:00,69.5,58.9,30.09,WNW,283,0.0,11.0,69,0.00,,---,0.00,VWS V14.01,2013-08-16 14:40:00,
2013-08-16 10:41:00,69.5,59.3,30.09,WNW,282,0.0,3.0,70,0.00,,---,0.00,VWS V14.01,2013-08-16 14:41:00,
2013-08-16 10:45:00,69.8,58.8,30.09,SW,215,2.0,8.0,68,0.00,,---,0.00,VWS V14.01,2013-08-16 14:45:00,
2013-08-16 10:46:00,69.8,58.4,30.09,WSW,240,0.0,3.0,67,0.00,,---,0.00,VWS V14.01,2013-08-16 14:46:00,
2013-08-16 10:50:00,70.1,59.5,30.09,West,276,2.0,6.0,69,0.00,,---,0.00,VWS V14.01,2013-08-16 14:50:00,
2013-08-16 10:51:00,70.3,60.1,30.09,WSW,244,7.0,7.0,70,0.00,,---,0.00,VWS V14.01,2013-08-16 14:51:00,
2013-08-16 10:55:00,70.5,59.0,30.09,WSW,254,3.0,7.0,67,0.00,,---,0.00,VWS V14.01,2013-08-16 14:55:00,
2013-08-16 10:56:00,70.6,59.1,30.09,West,268,4.0,4.0,67,0.00,,---,0.00,VWS V14.01,2013-08-16 14:56:00,
2013-08-16 11:00:00,70.8,59.3,30.09,WSW,257,7.0,12.0,67,0.00,,---,0.00,VWS V14.01,2013-08-16 15:00:00,
2013-08-16 11:01:00,71.0,60.3,30.09,WSW,257,0.0,7.0,69,0.00,,---,0.00,VWS V14.01,2013-08-16 15:01:00,
2013-08-16 11:05:00,71.0,59.9,30.09,SW,235,0.0,7.0,68,0.00,,---,0.00,VWS V14.01,2013-08-16 15:05:00,
2013-08-16 11:06:00,71.1,60.0,30.09,SW,235,0.0,2.0,68,0.00,,---,0.00,VWS V14.01,2013-08-16 15:06:00,
2013-08-16 11:10:00,71.2,60.1,30.09,West,281,2.0,3.0,68,0.00,,---,0.00,VWS V14.01,2013-08-16 15:10:00,
2013-08-16 11:11:00,71.2,60.1,30.09,West,280,1.0,3.0,68,0.00,,---,0.00,VWS V14.01,2013-08-16 15:11:00,
2013-08-16 11:15:00,71.3,60.6,30.09,WNW,284,1.0,6.0,69,0.00,,---,0.00,VWS V14.01,2013-08-16 15:15:00,
2013-08-16 11:16:00,71.3,58.9,30.09,WSW,253,1.0,4.0,65,0.00,,---,0.00,VWS V14.01,2013-08-16 15:16:00,
2013-08-16 11:20:00,71.3,59.8,30.09,West,268,1.0,6.0,67,0.00,,---,0.00,VWS V14.01,2013-08-16 15:20:00,
2013-08-16 11:21:00,71.3,59.4,30.09,West,269,2.0,3.0,66,0.00,,---,0.00,VWS V14.01,2013-08-16 15:21:00,
2013-08-16 11:25:00,71.5,59.6,30.09,North,5,2.0,4.0,66,0.00,,---,0.00,VWS V14.01,2013-08-16 15:25:00,
2013-08-16 11:26:00,71.5,59.6,30.09,North,5,3.0,3.0,66,0.00,,---,0.00,VWS V14.01,2013-08-16 15:26:00,
2013-08-16 11:30:00,71.7,58.5,30.08,West,271,0.0,7.0,63,0.00,,---,0.00,VWS V14.01,2013-08-16 15:30:00,
2013-08-16 11:31:00,71.7,58.5,30.09,West,267,2.0,3.0,63,0.00,,---,0.00,VWS V14.01,2013-08-16 15:31:00,
2013-08-16 11:35:00,71.9,59.1,30.08,West,274,1.0,7.0,64,0.00,,---,0.00,VWS V14.01,2013-08-16 15:35:00,
2013-08-16 11:36:00,72.0,58.7,30.09,West,274,0.0,2.0,63,0.00,,---,0.00,VWS V14.01,2013-08-16 15:36:00,
2013-08-16 11:40:00,72.3,59.0,30.08,NW,321,5.0,5.0,63,0.00,,---,0.00,VWS V14.01,2013-08-16 15:40:00,
2013-08-16 11:41:00,72.7,59.4,30.08,SSW,211,5.0,5.0,63,0.00,,---,0.00,VWS V14.01,2013-08-16 15:41:00,
2013-08-16 11:45:00,73.3,59.5,30.08,ESE,104,1.0,6.0,62,0.00,,---,0.00,VWS V14.01,2013-08-16 15:45:00,
2013-08-16 11:47:00,73.5,60.2,30.08,ESE,109,0.0,2.0,63,0.00,,---,0.00,VWS V14.01,2013-08-16 15:47:00,
2013-08-16 11:50:00,73.4,58.2,30.09,WNW,300,0.0,10.0,59,0.00,,---,0.00,VWS V14.01,2013-08-16 15:50:00,
2013-08-16 11:52:00,73.3,58.1,30.09,NW,306,5.0,8.0,59,0.00,,---,0.00,VWS V14.01,2013-08-16 15:52:00,
2013-08-16 11:55:00,72.5,57.4,30.09,West,265,7.0,8.0,59,0.00,,---,0.00,VWS V14.01,2013-08-16 15:55:00,
2013-08-16 11:57:00,72.6,57.0,30.09,SW,232,2.0,7.0,58,0.00,,---,0.00,VWS V14.01,2013-08-16 15:57:00,
2013-08-16 12:00:00,73.2,56.6,30.09,SW,228,2.0,7.0,56,0.00,,---,0.00,VWS V14.01,2013-08-16 16:00:00,
2013-08-16 12:02:00,73.2,56.6,30.09,WSW,249,1.0,5.0,56,0.00,,---,0.00,VWS V14.01,2013-08-16 16:02:00,
2013-08-16 12:05:00,73.5,57.8,30.09,West,265,10.0,12.0,58,0.00,,---,0.00,VWS V14.01,2013-08-16 16:05:00,
2013-08-16 12:07:00,73.7,57.5,30.09,West,279,0.0,11.0,57,0.00,,---,0.00,VWS V14.01,2013-08-16 16:07:00,
2013-08-16 12:10:00,73.8,58.1,30.09,West,267,5.0,11.0,58,0.00,,---,0.00,VWS V14.01,2013-08-16 16:10:00,
2013-08-16 12:12:00,73.8,58.1,30.08,SSW,212,1.0,10.0,58,0.00,,---,0.00,VWS V14.01,2013-08-16 16:12:00,
2013-08-16 12:15:00,73.8,59.5,30.09,West,260,3.0,10.0,61,0.00,,---,0.00,VWS V14.01,2013-08-16 16:15:00,
2013-08-16 12:17:00,73.8,59.1,30.08,SW,217,0.0,11.0,60,0.00,,---,0.00,VWS V14.01,2013-08-16 16:17:00,
2013-08-16 12:20:00,73.9,60.1,30.08,SSW,210,3.0,11.0,62,0.00,,---,0.00,VWS V14.01,2013-08-16 16:20:00,
2013-08-16 12:22:00,73.9,59.2,30.08,NNW,348,4.0,11.0,60,0.00,,---,0.00,VWS V14.01,2013-08-16 16:22:00,
2013-08-16 12:25:00,74.2,58.5,30.09,WSW,240,3.0,11.0,58,0.00,,---,0.00,VWS V14.01,2013-08-16 16:25:00,
2013-08-16 12:27:00,74.3,58.6,30.09,West,280,4.0,7.0,58,0.00,,---,0.00,VWS V14.01,2013-08-16 16:27:00,
2013-08-16 12:30:00,74.5,58.3,30.09,WNW,284,1.0,7.0,57,0.00,,---,0.00,VWS V14.01,2013-08-16 16:30:00,
2013-08-16 12:32:00,74.4,58.2,30.09,SW,215,0.0,3.0,57,0.00,,---,0.00,VWS V14.01,2013-08-16 16:32:00,
2013-08-16 12:35:00,74.5,60.2,30.09,WNW,285,8.0,8.0,61,0.00,,---,0.00,VWS V14.01,2013-08-16 16:35:00,
2013-08-16 12:37:00,74.4,58.7,30.09,WSW,248,1.0,11.0,58,0.00,,---,0.00,VWS V14.01,2013-08-16 16:37:00,
2013-08-16 12:40:00,74.5,60.2,30.09,West,271,7.0,11.0,61,0.00,,---,0.00,VWS V14.01,2013-08-16 16:40:00,
2013-08-16 12:42:00,74.4,58.2,30.09,SW,228,4.0,7.0,57,0.00,,---,0.00,VWS V14.01,2013-08-16 16:42:00,
2013-08-16 12:45:00,74.2,59.4,30.09,WSW,249,3.0,7.0,60,0.00,,---,0.00,VWS V14.01,2013-08-16 16:45:00,
2013-08-16 12:47:00,74.0,59.2,30.09,West,276,3.0,4.0,60,0.00,,---,0.00,VWS V14.01,2013-08-16 16:47:00,
2013-08-16 12:50:00,73.8,58.1,30.09,West,273,0.0,5.0,58,0.00,,---,0.00,VWS V14.01,2013-08-16 16:50:00,
2013-08-16 12:52:00,73.7,58.0,30.09,NNE,33,1.0,4.0,58,0.00,,---,0.00,VWS V14.01,2013-08-16 16:52:00,
2013-08-16 12:55:00,73.6,57.0,30.09,WSW,256,3.0,5.0,56,0.00,,---,0.00,VWS V14.01,2013-08-16 16:55:00,
2013-08-16 12:57:00,73.6,57.0,30.09,West,277,0.0,4.0,56,0.00,,---,0.00,VWS V14.01,2013-08-16 16:57:00,
2013-08-16 13:00:00,73.6,58.4,30.09,West,260,8.0,9.0,59,0.00,,---,0.00,VWS V14.01,2013-08-16 17:00:00,
2013-08-16 13:02:00,73.9,57.7,30.09,WSW,242,2.0,11.0,57,0.00,,---,0.00,VWS V14.01,2013-08-16 17:02:00,
2013-08-16 13:05:00,73.9,61.4,30.09,WNW,293,4.0,11.0,65,0.00,,---,0.00,VWS V14.01,2013-08-16 17:05:00,
2013-08-16 13:07:00,74.3,56.1,30.09,SW,231,1.0,10.0,53,0.00,,---,0.00,VWS V14.01,2013-08-16 17:07:00,
2013-08-16 13:10:00,74.6,56.9,30.08,WSW,244,3.0,10.0,54,0.00,,---,0.00,VWS V14.01,2013-08-16 17:10:00,
2013-08-16 13:12:00,75.1,58.8,30.08,WSW,241,4.0,7.0,57,0.00,,---,0.00,VWS V14.01,2013-08-16 17:12:00,
2013-08-16 13:15:00,75.4,58.1,30.08,SW,214,3.0,7.0,55,0.00,,---,0.00,VWS V14.01,2013-08-16 17:15:00,
2013-08-16 13:17:00,75.5,57.7,30.08,West,261,5.0,5.0,54,0.00,,---,0.00,VWS V14.01,2013-08-16 17:17:00,
2013-08-16 13:20:00,75.7,56.3,30.09,NNW,340,1.0,14.0,51,0.00,,---,0.00,VWS V14.01,2013-08-16 17:20:00,
2013-08-16 13:22:00,75.8,55.3,30.08,SSW,209,1.0,10.0,49,0.00,,---,0.00,VWS V14.01,2013-08-16 17:22:00,
2013-08-16 13:25:00,76.1,57.2,30.08,SW,236,4.0,10.0,52,0.00,,---,0.00,VWS V14.01,2013-08-16 17:25:00,
2013-08-16 13:27:00,76.4,58.5,30.09,NW,312,2.0,7.0,54,0.00,,---,0.00,VWS V14.01,2013-08-16 17:27:00,
2013-08-16 13:30:00,76.3,62.3,30.09,SSW,193,0.0,7.0,62,0.00,,---,0.00,VWS V14.01,2013-08-16 17:30:00,
2013-08-16 13:33:00,76.2,57.3,30.08,West,272,3.0,5.0,52,0.00,,---,0.00,VWS V14.01,2013-08-16 17:33:00,
2013-08-16 13:35:00,76.9,60.0,30.09,NW,317,2.0,7.0,56,0.00,,---,0.00,VWS V14.01,2013-08-16 17:35:00,
2013-08-16 13:38:00,77.0,59.6,30.09,West,281,8.0,9.0,55,0.00,,---,0.00,VWS V14.01,2013-08-16 17:38:00,
2013-08-16 13:40:00,77.0,58.6,30.09,WNW,284,9.0,9.0,53,0.00,,---,0.00,VWS V14.01,2013-08-16 17:40:00,
2013-08-16 13:43:00,76.9,58.0,30.09,NW,315,4.0,14.0,52,0.00,,---,0.00,VWS V14.01,2013-08-16 17:43:00,
2013-08-16 13:45:00,76.6,56.6,30.09,SW,234,1.0,14.0,50,0.00,,---,0.00,VWS V14.01,2013-08-16 17:45:00,
2013-08-16 13:48:00,76.7,59.8,30.09,West,271,3.0,11.0,56,0.00,,---,0.00,VWS V14.01,2013-08-16 17:48:00,
2013-08-16 13:50:00,77.0,60.1,30.09,West,266,2.0,11.0,56,0.00,,---,0.00,VWS V14.01,2013-08-16 17:50:00,
2013-08-16 13:53:00,77.1,58.1,30.08,SW,227,4.0,6.0,52,0.00,,---,0.00,VWS V14.01,2013-08-16 17:53:00,
2013-08-16 13:55:00,77.5,60.6,30.08,WSW,239,2.0,6.0,56,0.00,,---,0.00,VWS V14.01,2013-08-16 17:55:00,
2013-08-16 13:58:00,77.6,61.7,30.08,West,277,2.0,5.0,58,0.00,,---,0.00,VWS V14.01,2013-08-16 17:58:00,
2013-08-16 14:00:00,77.6,58.1,30.09,ENE,77,2.0,5.0,51,0.00,,---,0.00,VWS V14.01,2013-08-16 18:00:00,
2013-08-16 14:03:00,77.6,57.5,30.09,SSW,213,2.0,10.0,50,0.00,,---,0.00,VWS V14.01,2013-08-16 18:03:00,
2013-08-16 14:05:00,77.4,56.2,30.09,West,276,10.0,11.0,48,0.00,,---,0.00,VWS V14.01,2013-08-16 18:05:00,
2013-08-16 14:08:00,77.3,56.1,30.09,WNW,300,0.0,10.0,48,0.00,,---,0.00,VWS V14.01,2013-08-16 18:08:00,
2013-08-16 14:10:00,77.3,60.4,30.09,West,269,6.0,11.0,56,0.00,,---,0.00,VWS V14.01,2013-08-16 18:10:00,
2013-08-16 14:13:00,77.1,58.7,30.09,WSW,254,0.0,7.0,53,0.00,,---,0.00,VWS V14.01,2013-08-16 18:13:00,
2013-08-16 14:15:00,76.9,57.4,30.09,SW,221,1.0,7.0,51,0.00,,---,0.00,VWS V14.01,2013-08-16 18:15:00,
2013-08-16 14:18:00,76.0,61.1,30.09,SSW,209,4.0,5.0,60,0.00,,---,0.00,VWS V14.01,2013-08-16 18:18:00,
2013-08-16 14:20:00,75.8,60.0,30.09,SW,223,4.0,5.0,58,0.00,,---,0.00,VWS V14.01,2013-08-16 18:20:00,
2013-08-16 14:23:00,75.5,56.7,30.09,West,265,3.0,6.0,52,0.00,,---,0.00,VWS V14.01,2013-08-16 18:23:00,
2013-08-16 14:25:00,75.1,55.2,30.09,North,9,2.0,6.0,50,0.00,,---,0.00,VWS V14.01,2013-08-16 18:25:00,
2013-08-16 14:28:00,75.3,55.9,30.09,West,263,0.0,4.0,51,0.00,,---,0.00,VWS V14.01,2013-08-16 18:28:00,
2013-08-16 14:30:00,75.9,57.6,30.09,SSW,192,3.0,7.0,53,0.00,,---,0.00,VWS V14.01,2013-08-16 18:30:00,
2013-08-16 14:33:00,76.4,55.3,30.09,SSW,206,1.0,4.0,48,0.00,,---,0.00,VWS V14.01,2013-08-16 18:33:00,
2013-08-16 14:35:00,76.5,58.1,30.09,WSW,253,1.0,5.0,53,0.00,,---,0.00,VWS V14.01,2013-08-16 18:35:00,
2013-08-16 14:38:00,76.6,58.2,30.08,West,268,2.0,3.0,53,0.00,,---,0.00,VWS V14.01,2013-08-16 18:38:00,
2013-08-16 14:40:00,76.8,55.1,30.08,WSW,242,4.0,9.0,47,0.00,,---,0.00,VWS V14.01,2013-08-16 18:40:00,
2013-08-16 14:43:00,77.3,57.8,30.08,West,279,4.0,12.0,51,0.00,,---,0.00,VWS V14.01,2013-08-16 18:43:00,
2013-08-16 14:45:00,77.7,62.7,30.08,West,275,3.0,12.0,60,0.00,,---,0.00,VWS V14.01,2013-08-16 18:45:00,
2013-08-16 14:48:00,77.5,57.4,30.08,WNW,284,3.0,7.0,50,0.00,,---,0.00,VWS V14.01,2013-08-16 18:48:00,
2013-08-16 14:50:00,77.1,60.7,30.08,SW,233,2.0,7.0,57,0.00,,---,0.00,VWS V14.01,2013-08-16 18:50:00,
2013-08-16 14:53:00,76.6,61.2,30.08,SSW,201,1.0,5.0,59,0.00,,---,0.00,VWS V14.01,2013-08-16 18:53:00,
2013-08-16 14:55:00,76.6,57.7,30.08,WNW,290,0.0,5.0,52,0.00,,---,0.00,VWS V14.01,2013-08-16 18:55:00,
2013-08-16 14:58:00,77.0,58.0,30.08,West,273,2.0,4.0,52,0.00,,---,0.00,VWS V14.01,2013-08-16 18:58:00,
2013-08-16 15:00:00,76.8,60.9,30.08,WSW,246,3.0,5.0,58,0.00,,---,0.00,VWS V14.01,2013-08-16 19:00:00,
2013-08-16 15:03:00,77.0,55.2,30.08,SSW,199,4.0,5.0,47,0.00,,---,0.00,VWS V14.01,2013-08-16 19:03:00,
2013-08-16 15:05:00,77.1,58.7,30.08,South,181,1.0,5.0,53,0.00,,---,0.00,VWS V14.01,2013-08-16 19:05:00,
2013-08-16 15:08:00,77.1,55.3,30.08,South,181,0.0,2.0,47,0.00,,---,0.00,VWS V14.01,2013-08-16 19:08:00,
2013-08-16 15:10:00,77.2,61.8,30.08,SW,229,1.0,3.0,59,0.00,,---,0.00,VWS V14.01,2013-08-16 19:10:00,
2013-08-16 15:13:00,76.8,59.4,30.08,SW,228,0.0,1.0,55,0.00,,---,0.00,VWS V14.01,2013-08-16 19:13:00,
2013-08-16 15:15:00,76.7,56.7,30.08,NW,311,1.0,7.0,50,0.00,,---,0.00,VWS V14.01,2013-08-16 19:15:00,
2013-08-16 15:18:00,77.0,60.1,30.08,NW,311,3.0,3.0,56,0.00,,---,0.00,VWS V14.01,2013-08-16 19:18:00,
2013-08-16 15:20:00,77.3,57.2,30.08,WNW,303,1.0,7.0,50,0.00,,---,0.00,VWS V14.01,2013-08-16 19:20:00,
2013-08-16 15:23:00,78.0,58.4,30.08,NNW,340,7.0,7.0,51,0.00,,---,0.00,VWS V14.01,2013-08-16 19:23:00,
2013-08-16 15:25:00,78.1,60.1,30.08,NNW,329,3.0,7.0,54,0.00,,---,0.00,VWS V14.01,2013-08-16 19:25:00,
2013-08-16 15:28:00,78.4,57.1,30.08,WSW,238,2.0,6.0,48,0.00,,---,0.00,VWS V14.01,2013-08-16 19:28:00,
2013-08-16 15:30:00,78.7,60.2,30.08,NW,304,1.0,6.0,53,0.00,,---,0.00,VWS V14.01,2013-08-16 19:30:00,
2013-08-16 15:33:00,78.7,59.1,30.07,WSW,241,1.0,4.0,51,0.00,,---,0.00,VWS V14.01,2013-08-16 19:33:00,
2013-08-16 15:35:00,78.7,57.4,30.08,WSW,246,0.0,4.0,48,0.00,,---,0.00,VWS V14.01,2013-08-16 19:35:00,
2013-08-16 15:38:00,78.7,58.0,30.07,West,260,1.0,3.0,49,0.00,,---,0.00,VWS V14.01,2013-08-16 19:38:00,
2013-08-16 15:40:00,78.5,61.0,30.07,West,260,1.0,3.0,55,0.00,,---,0.00,VWS V14.01,2013-08-16 19:40:00,
2013-08-16 15:43:00,78.5,62.5,30.07,SW,226,2.0,5.0,58,0.00,,---,0.00,VWS V14.01,2013-08-16 19:43:00,
2013-08-16 15:45:00,78.3,64.2,30.07,SW,224,0.0,9.0,62,0.00,,---,0.00,VWS V14.01,2013-08-16 19:45:00,
2013-08-16 15:48:00,78.2,58.1,30.07,NW,319,2.0,4.0,50,0.00,,---,0.00,VWS V14.01,2013-08-16 19:48:00,
2013-08-16 15:50:00,78.5,56.0,30.08,West,271,0.0,6.0,46,0.00,,---,0.00,VWS V14.01,2013-08-16 19:50:00,
2013-08-16 15:53:00,78.3,58.7,30.08,WSW,258,2.0,3.0,51,0.00,,---,0.00,VWS V14.01,2013-08-16 19:53:00,
2013-08-16 15:55:00,78.2,61.2,30.08,SSW,207,1.0,9.0,56,0.00,,---,0.00,VWS V14.01,2013-08-16 19:55:00,
2013-08-16 15:58:00,78.0,59.0,30.08,SSW,213,2.0,5.0,52,0.00,,---,0.00,VWS V14.01,2013-08-16 19:58:00,
2013-08-16 16:00:00,77.5,62.5,30.08,SW,225,3.0,5.0,60,0.00,,---,0.00,VWS V14.01,2013-08-16 20:00:00,
2013-08-16 16:03:00,77.0,58.0,30.07,SW,225,0.0,3.0,52,0.00,,---,0.00,VWS V14.01,2013-08-16 20:03:00,
2013-08-16 16:05:00,77.3,58.8,30.07,SW,226,3.0,4.0,53,0.00,,---,0.00,VWS V14.01,2013-08-16 20:05:00,
2013-08-16 16:08:00,77.7,55.3,30.07,SW,227,0.0,3.0,46,0.00,,---,0.00,VWS V14.01,2013-08-16 20:08:00,
2013-08-16 16:10:00,78.0,57.3,30.07,SW,227,2.0,3.0,49,0.00,,---,0.00,VWS V14.01,2013-08-16 20:10:00,
2013-08-16 16:13:00,78.0,59.0,30.08,SW,231,3.0,4.0,52,0.00,,---,0.00,VWS V14.01,2013-08-16 20:13:00,
2013-08-16 16:15:00,78.0,59.0,30.08,SW,223,0.0,4.0,52,0.00,,---,0.00,VWS V14.01,2013-08-16 20:15:00,
2013-08-16 16:19:00,78.0,61.0,30.08,West,274,1.0,6.0,56,0.00,,---,0.00,VWS V14.01,2013-08-16 20:19:00,
2013-08-16 16:20:00,78.0,57.9,30.07,WNW,302,2.0,6.0,50,0.00,,---,0.00,VWS V14.01,2013-08-16 20:20:00,
2013-08-16 16:24:00,78.2,59.2,30.08,WSW,258,7.0,7.0,52,0.00,,---,0.00,VWS V14.01,2013-08-16 20:24:00,
2013-08-16 16:25:00,78.2,57.5,30.08,West,279,5.0,9.0,49,0.00,,---,0.00,VWS V14.01,2013-08-16 20:25:00,
2013-08-16 16:29:00,78.4,59.9,30.08,WNW,294,2.0,6.0,53,0.00,,---,0.00,VWS V14.01,2013-08-16 20:29:00,
2013-08-16 16:30:00,78.4,56.5,30.07,WNW,294,3.0,6.0,47,0.00,,---,0.00,VWS V14.01,2013-08-16 20:30:00,
2013-08-16 16:34:00,78.3,57.0,30.07,West,278,0.0,9.0,48,0.00,,---,0.00,VWS V14.01,2013-08-16 20:34:00,
2013-08-16 16:35:00,78.3,58.2,30.07,WSW,252,7.0,10.0,50,0.00,,---,0.00,VWS V14.01,2013-08-16 20:35:00,
2013-08-16 16:39:00,78.5,60.0,30.07,West,278,3.0,7.0,53,0.00,,---,0.00,VWS V14.01,2013-08-16 20:39:00,
2013-08-16 16:40:00,78.5,58.3,30.07,West,278,0.0,7.0,50,0.00,,---,0.00,VWS V14.01,2013-08-16 20:40:00,
2013-08-16 16:44:00,78.7,58.5,30.07,West,271,1.0,6.0,50,0.00,,---,0.00,VWS V14.01,2013-08-16 20:44:00,
2013-08-16 16:45:00,78.7,57.4,30.07,West,271,0.0,6.0,48,0.00,,---,0.00,VWS V14.01,2013-08-16 20:45:00,
2013-08-16 16:49:00,79.0,57.7,30.07,WSW,257,0.0,4.0,48,0.00,,---,0.00,VWS V14.01,2013-08-16 20:49:00,
2013-08-16 16:50:00,79.1,57.8,30.07,WSW,257,1.0,4.0,48,0.00,,---,0.00,VWS V14.01,2013-08-16 20:50:00,
2013-08-16 16:54:00,79.2,58.4,30.07,WSW,257,0.0,2.0,49,0.00,,---,0.00,VWS V14.01,2013-08-16 20:54:00,
2013-08-16 16:55:00,79.2,61.1,30.08,WSW,257,1.0,2.0,54,0.00,,---,0.00,VWS V14.01,2013-08-16 20:55:00,
2013-08-16 16:59:00,79.0,59.9,30.07,WNW,288,2.0,3.0,52,0.00,,---,0.00,VWS V14.01,2013-08-16 20:59:00,
2013-08-16 17:00:00,78.9,59.8,30.07,WNW,288,0.0,3.0,52,0.00,,---,0.00,VWS V14.01,2013-08-16 21:00:00,
2013-08-16 17:04:00,78.7,59.1,30.07,West,279,0.0,4.0,51,0.00,,---,0.00,VWS V14.01,2013-08-16 21:04:00,
2013-08-16 17:05:00,78.7,59.1,30.07,West,279,1.0,4.0,51,0.00,,---,0.00,VWS V14.01,2013-08-16 21:05:00,
2013-08-16 17:09:00,78.7,61.7,30.07,West,279,1.0,2.0,56,0.00,,---,0.00,VWS V14.01,2013-08-16 21:09:00,
2013-08-16 17:10:00,78.7,58.0,30.07,West,279,0.0,2.0,49,0.00,,---,0.00,VWS V14.01,2013-08-16 21:10:00,
2013-08-16 17:14:00,78.7,56.8,30.07,West,279,0.0,1.0,47,0.00,,---,0.00,VWS V14.01,2013-08-16 21:14:00,
2013-08-16 17:15:00,78.7,56.8,30.07,SW,214,3.0,3.0,47,0.00,,---,0.00,VWS V14.01,2013-08-16 21:15:00,
2013-08-16 17:19:00,78.7,56.8,30.07,West,264,0.0,4.0,47,0.00,,---,0.00,VWS V14.01,2013-08-16 21:19:00,
2013-08-16 17:20:00,78.7,56.8,30.07,West,264,0.0,4.0,47,0.00,,---,0.00,VWS V14.01,2013-08-16 21:20:00,
2013-08-16 17:24:00,78.3,58.7,30.07,West,263,0.0,4.0,51,0.00,,---,0.00,VWS V14.01,2013-08-16 21:24:00,
2013-08-16 17:25:00,78.2,58.6,30.07,West,263,0.0,4.0,51,0.00,,---,0.00,VWS V14.01,2013-08-16 21:25:00,
2013-08-16 17:29:00,77.9,57.2,30.08,West,263,1.0,3.0,49,0.00,,---,0.00,VWS V14.01,2013-08-16 21:29:00,
2013-08-16 17:30:00,77.8,60.4,30.08,West,263,0.0,3.0,55,0.00,,---,0.00,VWS V14.01,2013-08-16 21:30:00,
2013-08-16 17:34:00,77.4,58.4,30.08,WSW,256,2.0,4.0,52,0.00,,---,0.00,VWS V14.01,2013-08-16 21:34:00,
2013-08-16 17:35:00,77.3,57.2,30.08,WSW,240,0.0,4.0,50,0.00,,---,0.00,VWS V14.01,2013-08-16 21:35:00,
2013-08-16 17:39:00,76.9,60.0,30.07,WSW,240,0.0,2.0,56,0.00,,---,0.00,VWS V14.01,2013-08-16 21:39:00,
2013-08-16 17:40:00,76.8,59.4,30.07,WSW,240,0.0,2.0,55,0.00,,---,0.00,VWS V14.01,2013-08-16 21:40:00,
2013-08-16 17:44:00,76.5,62.1,30.08,WSW,240,0.0,1.0,61,0.00,,---,0.00,VWS V14.01,2013-08-16 21:44:00,
2013-08-16 17:45:00,76.4,61.0,30.08,WSW,240,0.0,1.0,59,0.00,,---,0.00,VWS V14.01,2013-08-16 21:45:00,
2013-08-16 17:49:00,76.1,62.2,30.08,WSW,253,4.0,4.0,62,0.00,,---,0.00,VWS V14.01,2013-08-16 21:49:00,
2013-08-16 17:50:00,76.0,62.0,30.08,WSW,257,0.0,4.0,62,0.00,,---,0.00,VWS V14.01,2013-08-16 21:50:00,
2013-08-16 17:54:00,75.5,62.9,30.08,WSW,257,1.0,1.0,65,0.00,,---,0.00,VWS V14.01,2013-08-16 21:54:00,
2013-08-16 17:55:00,75.4,62.4,30.08,WSW,257,0.0,1.0,64,0.00,,---,0.00,VWS V14.01,2013-08-16 21:55:00,
2013-08-16 17:59:00,74.9,61.9,30.08,WSW,257,0.0,2.0,64,0.00,,---,0.00,VWS V14.01,2013-08-16 21:59:00,
2013-08-16 18:00:00,74.9,62.3,30.08,WSW,257,0.0,2.0,65,0.00,,---,0.00,VWS V14.01,2013-08-16 22:00:00,
2013-08-16 18:04:00,74.5,62.8,30.08,WSW,252,0.0,3.0,67,0.00,,---,0.00,VWS V14.01,2013-08-16 22:04:00,
2013-08-16 18:05:00,74.5,62.8,30.08,WSW,252,0.0,3.0,67,0.00,,---,0.00,VWS V14.01,2013-08-16 22:05:00,
2013-08-16 18:09:00,74.1,62.9,30.08,WSW,252,0.0,1.0,68,0.00,,---,0.00,VWS V14.01,2013-08-16 22:09:00,
2013-08-16 18:10:00,74.0,62.4,30.08,WSW,252,0.0,1.0,67,0.00,,---,0.00,VWS V14.01,2013-08-16 22:10:00,
2013-08-16 18:14:00,73.6,62.4,30.08,WNW,295,1.0,4.0,68,0.00,,---,0.00,VWS V14.01,2013-08-16 22:14:00,
2013-08-16 18:15:00,73.5,61.9,30.08,West,267,2.0,4.0,67,0.00,,---,0.00,VWS V14.01,2013-08-16 22:15:00,
2013-08-16 18:19:00,73.0,61.4,30.08,West,267,0.0,3.0,67,0.00,,---,0.00,VWS V14.01,2013-08-16 22:19:00,
2013-08-16 18:20:00,72.9,60.9,30.08,West,267,0.0,3.0,66,0.00,,---,0.00,VWS V14.01,2013-08-16 22:20:00,
2013-08-16 18:24:00,72.5,60.5,30.08,West,267,0.0,1.0,66,0.00,,---,0.00,VWS V14.01,2013-08-16 22:24:00,
2013-08-16 18:25:00,72.4,60.4,30.08,West,267,0.0,1.0,66,0.00,,---,0.00,VWS V14.01,2013-08-16 22:25:00,
2013-08-16 18:29:00,72.2,61.1,30.08,West,267,0.0,2.0,68,0.00,,---,0.00,VWS V14.01,2013-08-16 22:29:00,
2013-08-16 18:30:00,72.2,61.1,30.08,West,267,0.0,2.0,68,0.00,,---,0.00,VWS V14.01,2013-08-16 22:30:00,
2013-08-16 18:34:00,72.0,61.3,30.08,West,267,0.0,1.0,69,0.00,,---,0.00,VWS V14.01,2013-08-16 22:34:00,
2013-08-16 18:35:00,72.0,61.3,30.08,West,267,0.0,1.0,69,0.00,,---,0.00,VWS V14.01,2013-08-16 22:35:00,
2013-08-16 18:39:00,71.7,61.0,30.08,West,267,0.0,0.0,69,0.00,,---,0.00,VWS V14.01,2013-08-16 22:39:00,
2013-08-16 18:40:00,71.7,61.0,30.08,West,267,0.0,0.0,69,0.00,,---,0.00,VWS V14.01,2013-08-16 22:40:00,
2013-08-16 18:44:00,71.5,61.2,30.08,West,267,0.0,0.0,70,0.00,,---,0.00,VWS V14.01,2013-08-16 22:44:00,
2013-08-16 18:45:00,71.5,61.2,30.08,West,267,0.0,0.0,70,0.00,,---,0.00,VWS V14.01,2013-08-16 22:45:00,
2013-08-16 18:49:00,71.3,61.0,30.08,West,267,0.0,0.0,70,0.00,,---,0.00,VWS V14.01,2013-08-16 22:49:00,
2013-08-16 18:50:00,71.3,60.6,30.08,West,267,0.0,0.0,69,0.00,,---,0.00,VWS V14.01,2013-08-16 22:50:00,
2013-08-16 18:55:00,71.1,60.4,30.09,West,267,0.0,0.0,69,0.00,,---,0.00,VWS V14.01,2013-08-16 22:55:00,
2013-08-16 19:00:00,70.9,60.6,30.09,West,267,0.0,0.0,70,0.00,,---,0.00,VWS V14.01,2013-08-16 23:00:00,
2013-08-16 19:05:00,70.6,60.8,30.09,West,267,0.0,0.0,71,0.00,,---,0.00,VWS V14.01,2013-08-16 23:05:00,
2013-08-16 19:10:00,70.3,60.9,30.09,West,267,0.0,0.0,72,0.00,,---,0.00,VWS V14.01,2013-08-16 23:10:00,
2013-08-16 19:15:00,69.9,60.9,30.10,West,267,0.0,0.0,73,0.00,,---,0.00,VWS V14.01,2013-08-16 23:15:00,
2013-08-16 19:20:00,69.6,60.6,30.09,West,267,0.0,0.0,73,0.00,,---,0.00,VWS V14.01,2013-08-16 23:20:00,
2013-08-16 19:25:00,69.3,60.3,30.10,West,267,0.0,0.0,73,0.00,,---,0.00,VWS V14.01,2013-08-16 23:25:00,
2013-08-16 19:30:00,69.0,60.0,30.10,West,267,0.0,0.0,73,0.00,,---,0.00,VWS V14.01,2013-08-16 23:30:00,
2013-08-16 19:35:00,68.7,60.1,30.09,West,267,0.0,0.0,74,0.00,,---,0.00,VWS V14.01,2013-08-16 23:35:00,
2013-08-16 19:40:00,68.3,60.1,30.10,West,267,0.0,0.0,75,0.00,,---,0.00,VWS V14.01,2013-08-16 23:40:00,
2013-08-16 19:45:00,67.8,60.0,30.10,West,267,0.0,0.0,76,0.00,,---,0.00,VWS V14.01,2013-08-16 23:45:00,
2013-08-16 19:50:00,67.3,59.1,30.10,West,267,0.0,0.0,75,0.00,,---,0.00,VWS V14.01,2013-08-16 23:50:00,
2013-08-16 19:55:00,66.8,59.0,30.10,West,267,0.0,0.0,76,0.00,,---,0.00,VWS V14.01,2013-08-16 23:55:00,
2013-08-16 20:00:00,66.5,59.1,30.10,West,267,0.0,0.0,77,0.00,,---,0.00,VWS V14.01,2013-08-17 00:00:00,
2013-08-16 20:05:00,66.1,59.0,30.10,West,267,0.0,0.0,78,0.00,,---,0.00,VWS V14.01,2013-08-17 00:05:00,
2013-08-16 20:06:00,66.1,59.0,30.10,West,267,0.0,0.0,78,0.00,,---,0.00,VWS V14.01,2013-08-17 00:06:00,
2013-08-16 20:10:00,65.9,59.2,30.10,West,267,0.0,0.0,79,0.00,,---,0.00,VWS V14.01,2013-08-17 00:10:00,
2013-08-16 20:11:00,65.8,59.1,30.10,West,267,0.0,0.0,79,0.00,,---,0.00,VWS V14.01,2013-08-17 00:11:00,
2013-08-16 20:15:00,65.5,59.2,30.10,West,267,0.0,0.0,80,0.00,,---,0.00,VWS V14.01,2013-08-17 00:15:00,
2013-08-16 20:16:00,65.4,59.1,30.10,West,267,0.0,0.0,80,0.00,,---,0.00,VWS V14.01,2013-08-17 00:16:00,
2013-08-16 20:20:00,65.1,58.4,30.10,West,267,0.0,0.0,79,0.00,,---,0.00,VWS V14.01,2013-08-17 00:20:00,
2013-08-16 20:21:00,65.0,58.7,30.10,West,267,0.0,0.0,80,0.00,,---,0.00,VWS V14.01,2013-08-17 00:21:00,
2013-08-16 20:25:00,64.7,58.4,30.10,West,267,0.0,0.0,80,0.00,,---,0.00,VWS V14.01,2013-08-17 00:25:00,
2013-08-16 20:26:00,64.7,58.4,30.10,West,267,0.0,0.0,80,0.00,,---,0.00,VWS V14.01,2013-08-17 00:26:00,
2013-08-16 20:30:00,64.5,58.5,30.11,West,267,0.0,0.0,81,0.00,,---,0.00,VWS V14.01,2013-08-17 00:30:00,
2013-08-16 20:31:00,64.4,58.5,30.11,West,267,0.0,0.0,81,0.00,,---,0.00,VWS V14.01,2013-08-17 00:31:00,
2013-08-16 20:35:00,64.2,58.6,30.11,West,267,0.0,0.0,82,0.00,,---,0.00,VWS V14.01,2013-08-17 00:35:00,
2013-08-16 20:36:00,64.1,58.5,30.11,West,267,0.0,0.0,82,0.00,,---,0.00,VWS V14.01,2013-08-17 00:36:00,
2013-08-16 20:40:00,63.9,58.3,30.11,West,267,0.0,0.0,82,0.00,,---,0.00,VWS V14.01,2013-08-17 00:40:00,
2013-08-16 20:41:00,63.9,58.3,30.11,West,267,0.0,0.0,82,0.00,,---,0.00,VWS V14.01,2013-08-17 00:41:00,
2013-08-16 20:45:00,63.6,58.0,30.11,West,267,0.0,0.0,82,0.00,,---,0.00,VWS V14.01,2013-08-17 00:45:00,
2013-08-16 20:46:00,63.6,58.0,30.11,West,267,0.0,0.0,82,0.00,,---,0.00,VWS V14.01,2013-08-17 00:46:00,
2013-08-16 20:50:00,63.4,58.2,30.11,West,267,0.0,0.0,83,0.00,,---,0.00,VWS V14.01,2013-08-17 00:50:00,
2013-08-16 20:51:00,63.3,58.1,30.11,West,267,0.0,0.0,83,0.00,,---,0.00,VWS V14.01,2013-08-17 00:51:00,
2013-08-16 20:55:00,63.1,57.9,30.12,West,267,0.0,0.0,83,0.00,,---,0.00,VWS V14.01,2013-08-17 00:55:00,
2013-08-16 20:56:00,63.1,57.9,30.12,West,267,0.0,0.0,83,0.00,,---,0.00,VWS V14.01,2013-08-17 00:56:00,
2013-08-16 21:00:00,62.9,58.3,30.12,West,267,0.0,0.0,85,0.00,,---,0.00,VWS V14.01,2013-08-17 01:00:00,
2013-08-16 21:01:00,62.9,58.3,30.12,West,267,0.0,0.0,85,0.00,,---,0.00,VWS V14.01,2013-08-17 01:01:00,
2013-08-16 21:05:00,62.7,58.1,30.12,West,267,0.0,0.0,85,0.00,,---,0.00,VWS V14.01,2013-08-17 01:05:00,
2013-08-16 21:06:00,62.6,58.0,30.13,West,267,0.0,0.0,85,0.00,,---,0.00,VWS V14.01,2013-08-17 01:06:00,
2013-08-16 21:10:00,62.5,57.9,30.13,West,267,0.0,0.0,85,0.00,,---,0.00,VWS V14.01,2013-08-17 01:10:00,
2013-08-16 21:11:00,62.4,57.8,30.13,West,267,0.0,0.0,85,0.00,,---,0.00,VWS V14.01,2013-08-17 01:11:00,
2013-08-16 21:15:00,62.3,57.7,30.13,West,267,0.0,0.0,85,0.00,,---,0.00,VWS V14.01,2013-08-17 01:15:00,
2013-08-16 21:16:00,62.2,58.0,30.13,West,267,0.0,0.0,86,0.00,,---,0.00,VWS V14.01,2013-08-17 01:16:00,
2013-08-16 21:20:00,62.1,57.9,30.13,West,267,0.0,0.0,86,0.00,,---,0.00,VWS V14.01,2013-08-17 01:20:00,
2013-08-16 21:21:00,62.0,57.8,30.13,West,267,0.0,0.0,86,0.00,,---,0.00,VWS V14.01,2013-08-17 01:21:00,
2013-08-16 21:25:00,61.9,58.0,30.13,West,267,0.0,0.0,87,0.00,,---,0.00,VWS V14.01,2013-08-17 01:25:00,
2013-08-16 21:26:00,61.9,58.0,30.13,West,267,0.0,0.0,87,0.00,,---,0.00,VWS V14.01,2013-08-17 01:26:00,
2013-08-16 21:30:00,61.8,57.9,30.13,West,267,0.0,0.0,87,0.00,,---,0.00,VWS V14.01,2013-08-17 01:30:00,
2013-08-16 21:31:00,61.7,57.8,30.13,West,267,0.0,0.0,87,0.00,,---,0.00,VWS V14.01,2013-08-17 01:31:00,
2013-08-16 21:35:00,61.6,57.7,30.13,West,267,0.0,0.0,87,0.00,,---,0.00,VWS V14.01,2013-08-17 01:35:00,
2013-08-16 21:36:00,61.6,57.7,30.13,West,267,0.0,0.0,87,0.00,,---,0.00,VWS V14.01,2013-08-17 01:36:00,
2013-08-16 21:40:00,61.4,57.8,30.13,West,267,0.0,0.0,88,0.00,,---,0.00,VWS V14.01,2013-08-17 01:40:00,
2013-08-16 21:41:00,61.4,57.8,30.13,West,267,0.0,0.0,88,0.00,,---,0.00,VWS V14.01,2013-08-17 01:41:00,
2013-08-16 21:45:00,61.3,57.7,30.13,West,267,0.0,0.0,88,0.00,,---,0.00,VWS V14.01,2013-08-17 01:45:00,
2013-08-16 21:46:00,61.3,57.7,30.13,West,267,0.0,0.0,88,0.00,,---,0.00,VWS V14.01,2013-08-17 01:46:00,
2013-08-16 21:50:00,61.2,57.9,30.13,West,267,0.0,0.0,89,0.00,,---,0.00,VWS V14.01,2013-08-17 01:50:00,
2013-08-16 21:51:00,61.1,57.8,30.13,West,267,0.0,0.0,89,0.00,,---,0.00,VWS V14.01,2013-08-17 01:51:00,
2013-08-16 21:55:00,61.0,57.7,30.13,West,267,0.0,0.0,89,0.00,,---,0.00,VWS V14.01,2013-08-17 01:55:00,
2013-08-16 21:56:00,61.0,57.7,30.13,West,267,0.0,0.0,89,0.00,,---,0.00,VWS V14.01,2013-08-17 01:56:00,
2013-08-16 22:00:00,60.9,57.6,30.13,West,267,0.0,0.0,89,0.00,,---,0.00,VWS V14.01,2013-08-17 02:00:00,
2013-08-16 22:01:00,60.8,57.5,30.13,West,267,0.0,0.0,89,0.00,,---,0.00,VWS V14.01,2013-08-17 02:01:00,
2013-08-16 22:05:00,60.7,57.4,30.13,West,267,0.0,0.0,89,0.00,,---,0.00,VWS V14.01,2013-08-17 02:05:00,
2013-08-16 22:06:00,60.7,57.4,30.13,West,267,0.0,0.0,89,0.00,,---,0.00,VWS V14.01,2013-08-17 02:06:00,
2013-08-16 22:10:00,60.6,57.3,30.13,West,267,0.0,0.0,89,0.00,,---,0.00,VWS V14.01,2013-08-17 02:10:00,
2013-08-16 22:11:00,60.5,57.2,30.14,West,267,0.0,0.0,89,0.00,,---,0.00,VWS V14.01,2013-08-17 02:11:00,
2013-08-16 22:15:00,60.4,57.5,30.14,West,267,0.0,0.0,90,0.00,,---,0.00,VWS V14.01,2013-08-17 02:15:00,
2013-08-16 22:16:00,60.4,57.5,30.14,West,267,0.0,0.0,90,0.00,,---,0.00,VWS V14.01,2013-08-17 02:16:00,
2013-08-16 22:20:00,60.3,57.4,30.14,West,267,0.0,0.0,90,0.00,,---,0.00,VWS V14.01,2013-08-17 02:20:00,
2013-08-16 22:21:00,60.3,57.4,30.14,West,267,0.0,0.0,90,0.00,,---,0.00,VWS V14.01,2013-08-17 02:21:00,
2013-08-16 22:25:00,60.2,57.3,30.14,West,267,0.0,0.0,90,0.00,,---,0.00,VWS V14.01,2013-08-17 02:25:00,
2013-08-16 22:26:00,60.1,57.2,30.14,West,267,0.0,0.0,90,0.00,,---,0.00,VWS V14.01,2013-08-17 02:26:00,
2013-08-16 22:30:00,60.0,57.1,30.14,West,267,0.0,0.0,90,0.00,,---,0.00,VWS V14.01,2013-08-17 02:30:00,
2013-08-16 22:31:00,59.9,57.3,30.14,West,267,0.0,0.0,91,0.00,,---,0.00,VWS V14.01,2013-08-17 02:31:00,
2013-08-16 22:35:00,59.8,56.9,30.14,West,267,0.0,0.0,90,0.00,,---,0.00,VWS V14.01,2013-08-17 02:35:00,
2013-08-16 22:36:00,59.8,57.2,30.13,West,267,0.0,0.0,91,0.00,,---,0.00,VWS V14.01,2013-08-17 02:36:00,
2013-08-16 22:40:00,59.7,57.1,30.13,West,267,0.0,0.0,91,0.00,,---,0.00,VWS V14.01,2013-08-17 02:40:00,
2013-08-16 22:41:00,59.6,57.0,30.14,West,267,0.0,0.0,91,0.00,,---,0.00,VWS V14.01,2013-08-17 02:41:00,
2013-08-16 22:45:00,59.5,56.9,30.14,West,267,0.0,0.0,91,0.00,,---,0.00,VWS V14.01,2013-08-17 02:45:00,
2013-08-16 22:47:00,59.5,56.9,30.14,West,267,0.0,0.0,91,0.00,,---,0.00,VWS V14.01,2013-08-17 02:47:00,
2013-08-16 22:50:00,59.4,56.8,30.14,West,267,0.0,0.0,91,0.00,,---,0.00,VWS V14.01,2013-08-17 02:50:00,
2013-08-16 22:52:00,59.3,56.7,30.14,West,267,0.0,0.0,91,0.00,,---,0.00,VWS V14.01,2013-08-17 02:52:00,
2013-08-16 22:55:00,59.2,56.6,30.14,West,267,0.0,0.0,91,0.00,,---,0.00,VWS V14.01,2013-08-17 02:55:00,
2013-08-16 22:57:00,59.1,56.8,30.14,West,267,0.0,0.0,92,0.00,,---,0.00,VWS V14.01,2013-08-17 02:57:00,
2013-08-16 23:00:00,59.0,56.7,30.14,West,267,0.0,0.0,92,0.00,,---,0.00,VWS V14.01,2013-08-17 03:00:00,
2013-08-16 23:02:00,59.0,56.7,30.14,West,267,0.0,0.0,92,0.00,,---,0.00,VWS V14.01,2013-08-17 03:02:00,
2013-08-16 23:05:00,59.0,56.7,30.14,West,267,0.0,0.0,92,0.00,,---,0.00,VWS V14.01,2013-08-17 03:05:00,
2013-08-16 23:07:00,59.0,56.7,30.14,West,267,0.0,0.0,92,0.00,,---,0.00,VWS V14.01,2013-08-17 03:07:00,
2013-08-16 23:10:00,59.0,56.7,30.14,West,267,0.0,0.0,92,0.00,,---,0.00,VWS V14.01,2013-08-17 03:10:00,
2013-08-16 23:12:00,59.0,56.7,30.14,West,267,0.0,0.0,92,0.00,,---,0.00,VWS V14.01,2013-08-17 03:12:00,
2013-08-16 23:15:00,59.0,57.0,30.14,West,267,0.0,0.0,93,0.00,,---,0.00,VWS V14.01,2013-08-17 03:15:00,
2013-08-16 23:17:00,59.0,57.0,30.14,West,267,0.0,0.0,93,0.00,,---,0.00,VWS V14.01,2013-08-17 03:17:00,
2013-08-16 23:20:00,59.0,57.0,30.14,West,267,0.0,0.0,93,0.00,,---,0.00,VWS V14.01,2013-08-17 03:20:00,
2013-08-16 23:22:00,59.0,57.0,30.14,West,267,0.0,0.0,93,0.00,,---,0.00,VWS V14.01,2013-08-17 03:22:00,
2013-08-16 23:25:00,58.8,56.5,30.14,West,267,0.0,0.0,92,0.00,,---,0.00,VWS V14.01,2013-08-17 03:25:00,
2013-08-16 23:27:00,58.7,56.4,30.14,West,267,0.0,0.0,92,0.00,,---,0.00,VWS V14.01,2013-08-17 03:27:00,
2013-08-16 23:30:00,58.5,56.5,30.14,West,267,0.0,0.0,93,0.00,,---,0.00,VWS V14.01,2013-08-17 03:30:00,
2013-08-16 23:32:00,58.5,56.5,30.14,West,267,0.0,0.0,93,0.00,,---,0.00,VWS V14.01,2013-08-17 03:32:00,
2013-08-16 23:35:00,58.4,56.4,30.15,West,267,0.0,0.0,93,0.00,,---,0.00,VWS V14.01,2013-08-17 03:35:00,
2013-08-16 23:37:00,58.3,56.3,30.14,West,267,0.0,0.0,93,0.00,,---,0.00,VWS V14.01,2013-08-17 03:37:00,
2013-08-16 23:40:00,58.3,56.3,30.15,West,267,0.0,0.0,93,0.00,,---,0.00,VWS V14.01,2013-08-17 03:40:00,
2013-08-16 23:42:00,58.2,56.2,30.14,West,267,0.0,0.0,93,0.00,,---,0.00,VWS V14.01,2013-08-17 03:42:00,
2013-08-16 23:45:00,58.1,56.1,30.14,West,267,0.0,0.0,93,0.00,,---,0.00,VWS V14.01,2013-08-17 03:45:00,
2013-08-16 23:47:00,58.1,56.1,30.15,West,267,0.0,0.0,93,0.00,,---,0.00,VWS V14.01,2013-08-17 03:47:00,
2013-08-16 23:50:00,58.0,56.0,30.15,West,267,0.0,0.0,93,0.00,,---,0.00,VWS V14.01,2013-08-17 03:50:00,
2013-08-16 23:52:00,58.0,56.0,30.15,West,267,0.0,0.0,93,0.00,,---,0.00,VWS V14.01,2013-08-17 03:52:00,
2013-08-16 23:55:00,57.9,55.9,30.15,West,267,0.0,0.0,93,0.00,,---,0.00,VWS V14.01,2013-08-17 03:55:00,
2013-08-16 23:57:00,57.9,55.9,30.15,West,267,0.0,0.0,93,0.00,,---,0.00,VWS V14.01,2013-08-17 03:57:00,